createdAt,value
2018-08-12T00:00:34.599Z,15.40
2018-08-12T00:01:34.586Z,15.35
2018-08-12T00:02:34.614Z,15.36
2018-08-12T00:03:34.567Z,15.37
2018-08-12T00:04:34.568Z,15.35
2018-08-12T00:05:34.559Z,15.40
2018-08-12T00:06:34.551Z,15.39
2018-08-12T00:07:34.557Z,15.44
2018-08-12T00:08:34.546Z,15.39
2018-08-12T00:09:34.552Z,15.39
2018-08-12T00:10:34.547Z,15.37
2018-08-12T00:11:34.533Z,15.43
2018-08-12T00:12:34.530Z,15.28
2018-08-12T00:13:34.525Z,15.39
2018-08-12T00:14:34.519Z,15.33
2018-08-12T00:15:34.512Z,15.33
2018-08-12T00:16:34.509Z,15.29
2018-08-12T00:17:34.515Z,15.27
2018-08-12T00:18:34.501Z,15.31
2018-08-12T00:19:34.496Z,15.31
2018-08-12T00:20:34.494Z,15.35
2018-08-12T00:21:34.488Z,15.25
2018-08-12T00:22:34.485Z,15.37
2018-08-12T00:23:34.491Z,15.33
2018-08-12T00:24:34.489Z,15.33
2018-08-12T00:25:34.476Z,15.22
2018-08-12T00:26:34.479Z,15.28
2018-08-12T00:27:34.463Z,15.28
2018-08-12T00:28:34.454Z,15.24
2018-08-12T00:29:34.486Z,15.19
2018-08-12T00:30:34.484Z,15.28
2018-08-12T00:31:34.443Z,15.28
2018-08-12T00:32:34.441Z,15.22
2018-08-12T00:33:34.430Z,15.19
2018-08-12T00:34:34.426Z,15.24
2018-08-12T00:35:34.469Z,15.21
2018-08-12T00:36:34.418Z,15.22
2018-08-12T00:37:34.416Z,15.17
2018-08-12T00:38:34.439Z,15.17
2018-08-12T00:39:34.416Z,15.10
2018-08-12T00:40:34.400Z,15.10
2018-08-12T00:41:34.402Z,15.10
2018-08-12T00:42:34.393Z,15.07
2018-08-12T00:43:34.390Z,15.07
2018-08-12T00:44:34.385Z,15.06
2018-08-12T00:45:34.381Z,15.15
2018-08-12T00:46:34.417Z,15.11
2018-08-12T00:47:34.389Z,15.03
2018-08-12T00:48:34.379Z,15.04
2018-08-12T00:49:34.364Z,15.09
2018-08-12T00:50:34.358Z,15.09
2018-08-12T00:51:34.357Z,15.00
2018-08-12T00:52:34.356Z,14.91
2018-08-12T00:53:34.346Z,14.89
2018-08-12T00:54:34.338Z,14.89
2018-08-12T00:55:34.336Z,14.94
2018-08-12T00:56:34.338Z,14.89
2018-08-12T00:57:34.352Z,14.85
2018-08-12T00:58:34.324Z,14.82
2018-08-12T00:59:34.323Z,14.82
2018-08-12T01:00:34.315Z,14.86
2018-08-12T01:01:34.309Z,14.81
2018-08-12T01:02:34.302Z,14.82
2018-08-12T01:03:34.300Z,14.84
2018-08-12T01:04:34.296Z,14.77
2018-08-12T01:05:34.287Z,14.69
2018-08-12T01:06:34.309Z,14.66
2018-08-12T01:07:34.280Z,14.63
2018-08-12T01:08:34.287Z,14.60
2018-08-12T01:09:34.268Z,14.65
2018-08-12T01:10:34.265Z,14.62
2018-08-12T01:11:34.264Z,14.66
2018-08-12T01:12:34.255Z,14.55
2018-08-12T01:13:34.264Z,14.54
2018-08-12T01:14:34.243Z,14.55
2018-08-12T01:15:34.248Z,14.54
2018-08-12T01:16:34.265Z,14.48
2018-08-12T01:17:34.239Z,14.48
2018-08-12T01:18:49.347Z,14.43
2018-08-12T01:19:34.222Z,14.37
2018-08-12T01:20:34.214Z,14.36
2018-08-12T01:21:34.214Z,14.36
2018-08-12T01:22:34.206Z,14.22
2018-08-12T01:23:34.204Z,14.22
2018-08-12T01:24:34.210Z,14.32
2018-08-12T01:25:34.193Z,14.26
2018-08-12T01:26:34.195Z,14.29
2018-08-12T01:27:34.184Z,14.28
2018-08-12T01:28:34.216Z,14.28
2018-08-12T01:29:34.714Z,14.28
2018-08-12T01:30:34.169Z,14.28
2018-08-12T01:31:34.171Z,14.25
2018-08-12T01:32:34.175Z,14.28
2018-08-12T01:33:34.163Z,14.28
2018-08-12T01:34:34.153Z,14.20
2018-08-12T01:35:34.157Z,14.17
2018-08-12T01:36:34.154Z,14.26
2018-08-12T01:37:34.137Z,14.20
2018-08-12T01:38:34.721Z,14.22
2018-08-12T01:39:34.125Z,14.15
2018-08-12T01:40:34.128Z,14.22
2018-08-12T01:41:34.128Z,14.20
2018-08-12T01:42:34.130Z,14.29
2018-08-12T01:43:34.111Z,14.23
2018-08-12T01:44:34.134Z,14.17
2018-08-12T01:45:34.100Z,14.18
2018-08-12T01:46:34.091Z,14.22
2018-08-12T01:47:34.089Z,14.14
2018-08-12T01:48:34.081Z,14.15
2018-08-12T01:49:34.091Z,14.10
2018-08-12T01:50:34.075Z,13.99
2018-08-12T01:51:34.069Z,13.97
2018-08-12T01:52:34.070Z,14.04
2018-08-12T01:53:34.101Z,13.92
2018-08-12T01:54:34.049Z,13.97
2018-08-12T01:55:34.052Z,13.93
2018-08-12T01:56:34.039Z,13.97
2018-08-12T01:57:34.033Z,13.96
2018-08-12T01:58:34.041Z,13.96
2018-08-12T01:59:34.035Z,13.96
2018-08-12T02:00:34.069Z,13.99
2018-08-12T02:01:34.020Z,13.96
2018-08-12T02:02:34.013Z,13.97
2018-08-12T02:03:34.011Z,13.96
2018-08-12T02:04:34.013Z,14.03
2018-08-12T02:05:34.020Z,14.04
2018-08-12T02:06:34.003Z,13.97
2018-08-12T02:07:33.994Z,13.96
2018-08-12T02:08:34.012Z,13.93
2018-08-12T02:09:33.973Z,13.89
2018-08-12T02:10:34.744Z,13.87
2018-08-12T02:11:33.971Z,13.85
2018-08-12T02:12:33.967Z,13.86
2018-08-12T02:13:33.956Z,13.89
2018-08-12T02:14:33.950Z,13.78
2018-08-12T02:15:33.977Z,13.79
2018-08-12T02:16:33.959Z,13.78
2018-08-12T02:17:33.931Z,13.79
2018-08-12T02:18:33.946Z,13.68
2018-08-12T02:19:33.927Z,13.78
2018-08-12T02:20:33.927Z,13.86
2018-08-12T02:21:33.910Z,13.75
2018-08-12T02:22:33.909Z,13.79
2018-08-12T02:23:33.916Z,13.79
2018-08-12T02:24:33.907Z,13.81
2018-08-12T02:25:33.921Z,13.83
2018-08-12T02:26:33.932Z,13.87
2018-08-12T02:27:33.906Z,13.85
2018-08-12T02:28:33.879Z,13.85
2018-08-12T02:29:33.892Z,13.85
2018-08-12T02:30:33.871Z,13.89
2018-08-12T02:31:33.862Z,13.92
2018-08-12T02:32:33.873Z,13.90
2018-08-12T02:33:33.866Z,13.87
2018-08-12T02:34:33.844Z,13.86
2018-08-12T02:35:33.843Z,13.87
2018-08-12T02:36:34.756Z,13.83
2018-08-12T02:37:33.839Z,13.86
2018-08-12T02:38:33.819Z,13.83
2018-08-12T02:39:33.831Z,13.79
2018-08-12T02:40:33.838Z,13.79
2018-08-12T02:41:33.833Z,13.78
2018-08-12T02:42:33.813Z,13.75
2018-08-12T02:43:33.809Z,13.72
2018-08-12T02:44:33.796Z,13.75
2018-08-12T02:45:33.788Z,13.71
2018-08-12T02:46:33.776Z,13.70
2018-08-12T02:47:33.773Z,13.63
2018-08-12T02:48:33.788Z,13.67
2018-08-12T02:49:33.764Z,13.63
2018-08-12T02:50:33.779Z,13.65
2018-08-12T02:51:33.760Z,13.57
2018-08-12T02:52:33.750Z,13.60
2018-08-12T02:53:33.743Z,13.59
2018-08-12T02:54:33.746Z,13.63
2018-08-12T02:55:33.743Z,13.56
2018-08-12T02:56:33.727Z,13.54
2018-08-12T02:57:33.724Z,13.50
2018-08-12T02:58:33.723Z,13.49
2018-08-12T02:59:33.711Z,13.52
2018-08-12T03:00:33.709Z,13.44
2018-08-12T03:01:33.704Z,13.52
2018-08-12T03:02:34.261Z,13.39
2018-08-12T03:03:33.693Z,13.37
2018-08-12T03:04:33.683Z,13.31
2018-08-12T03:05:33.690Z,13.38
2018-08-12T03:06:33.678Z,13.35
2018-08-12T03:07:33.680Z,13.35
2018-08-12T03:08:33.666Z,13.33
2018-08-12T03:09:33.656Z,13.35
2018-08-12T03:10:33.653Z,13.30
2018-08-12T03:11:33.651Z,13.44
2018-08-12T03:12:33.647Z,13.31
2018-08-12T03:13:33.638Z,13.41
2018-08-12T03:14:33.632Z,13.42
2018-08-12T03:15:33.644Z,13.31
2018-08-12T03:16:33.638Z,13.39
2018-08-12T03:17:33.618Z,13.38
2018-08-12T03:18:33.613Z,13.28
2018-08-12T03:19:33.609Z,13.35
2018-08-12T03:20:33.615Z,13.33
2018-08-12T03:21:33.591Z,13.30
2018-08-12T03:22:33.687Z,13.35
2018-08-12T03:23:33.583Z,13.22
2018-08-12T03:24:33.576Z,13.25
2018-08-12T03:25:33.605Z,13.28
2018-08-12T03:26:33.575Z,13.31
2018-08-12T03:27:33.560Z,13.31
2018-08-12T03:28:33.557Z,13.22
2018-08-12T03:29:33.549Z,13.27
2018-08-12T03:30:33.547Z,13.23
2018-08-12T03:31:33.546Z,13.22
2018-08-12T03:32:33.543Z,13.25
2018-08-12T03:33:33.533Z,13.16
2018-08-12T03:34:33.520Z,13.25
2018-08-12T03:35:33.517Z,13.15
2018-08-12T03:36:33.537Z,13.19
2018-08-12T03:37:33.508Z,13.15
2018-08-12T03:38:33.499Z,13.19
2018-08-12T03:39:33.498Z,13.15
2018-08-12T03:40:33.490Z,13.15
2018-08-12T03:41:33.483Z,13.05
2018-08-12T03:42:33.483Z,13.13
2018-08-12T03:43:33.474Z,13.13
2018-08-12T03:44:33.468Z,13.08
2018-08-12T03:45:33.465Z,13.05
2018-08-12T03:46:33.453Z,13.04
2018-08-12T03:47:33.453Z,13.09
2018-08-12T03:48:34.281Z,13.08
2018-08-12T03:49:33.451Z,13.04
2018-08-12T03:50:35.285Z,13.00
2018-08-12T03:51:33.436Z,13.03
2018-08-12T03:52:33.426Z,13.03
2018-08-12T03:53:33.450Z,12.98
2018-08-12T03:54:33.444Z,12.95
2018-08-12T03:55:33.414Z,12.97
2018-08-12T03:56:33.407Z,13.01
2018-08-12T03:57:33.409Z,12.98
2018-08-12T03:58:33.393Z,12.93
2018-08-12T03:59:35.298Z,12.97
2018-08-12T04:00:33.379Z,12.94
2018-08-12T04:01:33.372Z,12.86
2018-08-12T04:02:33.364Z,12.85
2018-08-12T04:03:33.358Z,12.93
2018-08-12T04:04:33.359Z,12.87
2018-08-12T04:05:33.352Z,12.91
2018-08-12T04:06:33.366Z,12.85
2018-08-12T04:07:33.342Z,12.91
2018-08-12T04:08:33.332Z,12.85
2018-08-12T04:09:33.330Z,12.90
2018-08-12T04:10:33.328Z,12.85
2018-08-12T04:11:33.315Z,12.87
2018-08-12T04:12:33.309Z,12.85
2018-08-12T04:13:33.308Z,12.80
2018-08-12T04:14:33.300Z,12.80
2018-08-12T04:15:33.297Z,12.78
2018-08-12T04:16:33.289Z,12.80
2018-08-12T04:17:33.278Z,12.72
2018-08-12T04:18:33.274Z,12.70
2018-08-12T04:19:33.273Z,12.68
2018-08-12T04:20:33.268Z,12.67
2018-08-12T04:21:33.289Z,12.76
2018-08-12T04:22:33.258Z,12.68
2018-08-12T04:23:33.250Z,12.70
2018-08-12T04:24:33.248Z,12.64
2018-08-12T04:25:33.233Z,12.68
2018-08-12T04:26:33.233Z,12.85
2018-08-12T04:27:33.222Z,12.82
2018-08-12T04:28:33.220Z,12.75
2018-08-12T04:29:33.212Z,12.82
2018-08-12T04:30:33.213Z,12.91
2018-08-12T04:31:33.207Z,12.91
2018-08-12T04:32:33.195Z,12.93
2018-08-12T04:33:33.199Z,12.95
2018-08-12T04:34:33.187Z,13.04
2018-08-12T04:35:33.175Z,13.00
2018-08-12T04:36:33.180Z,12.98
2018-08-12T04:37:33.167Z,13.05
2018-08-12T04:38:33.170Z,13.01
2018-08-12T04:39:33.155Z,13.04
2018-08-12T04:40:33.151Z,13.03
2018-08-12T04:41:33.151Z,13.00
2018-08-12T04:42:33.159Z,13.03
2018-08-12T04:43:33.141Z,13.01
2018-08-12T04:44:33.128Z,13.03
2018-08-12T04:45:33.122Z,13.03
2018-08-12T04:46:33.120Z,13.03
2018-08-12T04:47:33.121Z,13.09
2018-08-12T04:48:33.107Z,12.97
2018-08-12T04:49:33.102Z,13.01
2018-08-12T04:50:33.093Z,13.03
2018-08-12T04:51:33.094Z,13.03
2018-08-12T04:52:33.085Z,13.09
2018-08-12T04:53:33.105Z,13.05
2018-08-12T04:54:33.072Z,13.00
2018-08-12T04:55:33.073Z,13.01
2018-08-12T04:56:33.066Z,12.98
2018-08-12T04:57:33.059Z,13.05
2018-08-12T04:58:33.056Z,12.98
2018-08-12T04:59:33.054Z,13.03
2018-08-12T05:00:33.039Z,13.08
2018-08-12T05:01:33.032Z,13.09
2018-08-12T05:02:33.028Z,13.03
2018-08-12T05:03:33.049Z,13.08
2018-08-12T05:04:33.031Z,13.13
2018-08-12T05:05:33.011Z,13.12
2018-08-12T05:06:33.008Z,13.18
2018-08-12T05:07:33.007Z,13.05
2018-08-12T05:08:32.997Z,13.22
2018-08-12T05:09:32.988Z,13.23
2018-08-12T05:10:32.994Z,13.35
2018-08-12T05:11:33.000Z,13.56
2018-08-12T05:12:32.976Z,13.68
2018-08-12T05:13:32.970Z,13.71
2018-08-12T05:14:32.972Z,13.79
2018-08-12T05:15:32.962Z,13.92
2018-08-12T05:16:32.957Z,14.00
2018-08-12T05:17:32.954Z,14.05
2018-08-12T05:18:32.958Z,14.14
2018-08-12T05:19:32.941Z,14.20
2018-08-12T05:20:32.937Z,14.23
2018-08-12T05:21:32.936Z,14.26
2018-08-12T05:22:32.931Z,14.28
2018-08-12T05:23:32.923Z,14.40
2018-08-12T05:24:32.922Z,14.48
2018-08-12T05:25:32.919Z,14.66
2018-08-12T05:26:32.906Z,14.84
2018-08-12T05:27:32.907Z,14.89
2018-08-12T05:28:32.916Z,15.02
2018-08-12T05:29:32.908Z,14.97
2018-08-12T05:30:32.906Z,14.99
2018-08-12T05:31:32.895Z,15.02
2018-08-12T05:32:32.883Z,15.03
2018-08-12T05:33:32.877Z,15.02
2018-08-12T05:34:32.877Z,15.06
2018-08-12T05:35:32.948Z,15.14
2018-08-12T05:36:32.867Z,15.19
2018-08-12T05:37:32.867Z,15.36
2018-08-12T05:38:32.864Z,15.29
2018-08-12T05:39:32.866Z,15.39
2018-08-12T05:40:32.864Z,15.52
2018-08-12T05:41:32.853Z,15.58
2018-08-12T05:42:32.851Z,15.61
2018-08-12T05:43:32.851Z,15.65
2018-08-12T05:44:32.838Z,15.68
2018-08-12T05:45:32.836Z,15.76
2018-08-12T05:46:32.834Z,15.75
2018-08-12T05:47:32.849Z,15.72
2018-08-12T05:48:32.824Z,15.67
2018-08-12T05:49:32.825Z,15.75
2018-08-12T05:50:32.816Z,15.77
2018-08-12T05:51:32.902Z,15.84
2018-08-12T05:52:32.814Z,15.90
2018-08-12T05:53:32.810Z,15.97
2018-08-12T05:54:32.806Z,16.02
2018-08-12T05:55:32.814Z,16.01
2018-08-12T05:56:32.800Z,16.13
2018-08-12T05:57:32.797Z,16.05
2018-08-12T05:58:32.793Z,16.15
2018-08-12T05:59:32.799Z,16.24
2018-08-12T06:00:32.800Z,16.26
2018-08-12T06:01:32.783Z,16.26
2018-08-12T06:02:32.852Z,16.24
2018-08-12T06:03:32.787Z,16.24
2018-08-12T06:04:32.775Z,16.28
2018-08-12T06:05:32.771Z,16.26
2018-08-12T06:06:32.769Z,16.23
2018-08-12T06:07:32.767Z,16.26
2018-08-12T06:08:32.771Z,16.28
2018-08-12T06:09:32.773Z,16.35
2018-08-12T06:10:32.770Z,16.46
2018-08-12T06:11:32.800Z,16.50
2018-08-12T06:12:32.752Z,16.57
2018-08-12T06:13:32.747Z,16.87
2018-08-12T06:14:32.747Z,16.90
2018-08-12T06:15:32.804Z,17.06
2018-08-12T06:16:32.745Z,17.02
2018-08-12T06:17:32.859Z,17.16
2018-08-12T06:18:32.741Z,17.27
2018-08-12T06:19:32.735Z,17.44
2018-08-12T06:20:32.735Z,17.54
2018-08-12T06:21:32.735Z,17.60
2018-08-12T06:22:32.726Z,17.56
2018-08-12T06:23:32.724Z,17.54
2018-08-12T06:24:32.727Z,17.65
2018-08-12T06:25:32.716Z,17.67
2018-08-12T06:26:32.717Z,17.78
2018-08-12T06:27:32.720Z,17.63
2018-08-12T06:28:32.711Z,17.63
2018-08-12T06:29:32.706Z,17.65
2018-08-12T06:30:32.712Z,17.71
2018-08-12T06:31:32.743Z,17.79
2018-08-12T06:32:32.710Z,17.82
2018-08-12T06:33:32.715Z,17.86
2018-08-12T06:34:32.737Z,17.98
2018-08-12T06:35:32.725Z,18.05
2018-08-12T06:36:32.718Z,18.28
2018-08-12T06:37:32.702Z,18.33
2018-08-12T06:38:32.701Z,18.43
2018-08-12T06:39:32.690Z,18.45
2018-08-12T06:40:32.688Z,18.58
2018-08-12T06:41:32.688Z,18.56
2018-08-12T06:42:32.685Z,18.71
2018-08-12T06:43:32.716Z,18.75
2018-08-12T06:44:32.690Z,18.70
2018-08-12T06:45:32.680Z,18.73
2018-08-12T06:46:32.676Z,18.80
2018-08-12T06:47:32.676Z,18.81
2018-08-12T06:48:32.700Z,18.73
2018-08-12T06:49:32.668Z,18.88
2018-08-12T06:50:32.671Z,18.89
2018-08-12T06:51:32.669Z,18.88
2018-08-12T06:52:32.664Z,18.93
2018-08-12T06:53:32.667Z,18.89
2018-08-12T06:54:32.665Z,19.00
2018-08-12T06:55:32.665Z,19.18
2018-08-12T06:56:32.665Z,19.26
2018-08-12T06:57:32.677Z,19.34
2018-08-12T06:58:32.652Z,19.39
2018-08-12T06:59:32.657Z,19.41
2018-08-12T07:00:32.674Z,19.47
2018-08-12T07:01:32.651Z,19.55
2018-08-12T07:02:32.646Z,19.55
2018-08-12T07:03:32.645Z,19.51
2018-08-12T07:04:32.651Z,19.62
2018-08-12T07:05:32.652Z,19.55
2018-08-12T07:06:32.642Z,19.63
2018-08-12T07:07:32.638Z,19.67
2018-08-12T07:08:32.640Z,19.69
2018-08-12T07:09:32.634Z,19.67
2018-08-12T07:10:32.640Z,19.74
2018-08-12T07:11:32.635Z,19.85
2018-08-12T07:12:32.646Z,19.92
2018-08-12T07:13:32.620Z,20.13
2018-08-12T07:14:32.627Z,20.26
2018-08-12T07:15:32.616Z,20.40
2018-08-12T07:16:32.623Z,20.56
2018-08-12T07:17:32.616Z,20.77
2018-08-12T07:18:32.623Z,21.06
2018-08-12T07:19:37.408Z,21.33
2018-08-12T07:20:32.612Z,21.67
2018-08-12T07:21:32.612Z,21.92
2018-08-12T07:22:32.603Z,21.82
2018-08-12T07:23:32.612Z,21.89
2018-08-12T07:24:32.618Z,21.91
2018-08-12T07:25:32.600Z,22.13
2018-08-12T07:26:32.605Z,22.44
2018-08-12T07:27:32.609Z,22.65
2018-08-12T07:28:32.598Z,22.93
2018-08-12T07:29:32.600Z,23.03
2018-08-12T07:30:32.609Z,23.20
2018-08-12T07:31:32.615Z,23.13
2018-08-12T07:32:32.626Z,23.23
2018-08-12T07:33:32.602Z,23.24
2018-08-12T07:34:32.611Z,23.34
2018-08-12T07:35:32.689Z,23.46
2018-08-12T07:36:32.674Z,23.54
2018-08-12T07:37:32.603Z,23.65
2018-08-12T07:38:32.643Z,23.77
2018-08-12T07:39:32.607Z,23.91
2018-08-12T07:40:33.617Z,23.86
2018-08-12T07:41:32.622Z,23.96
2018-08-12T07:42:34.415Z,23.98
2018-08-12T07:43:32.616Z,23.99
2018-08-12T07:44:32.616Z,23.99
2018-08-12T07:45:32.619Z,24.02
2018-08-12T07:46:32.620Z,24.23
2018-08-12T07:47:32.627Z,24.32
2018-08-12T07:48:32.639Z,24.32
2018-08-12T07:49:32.628Z,24.35
2018-08-12T07:50:32.650Z,24.40
2018-08-12T07:51:32.634Z,24.36
2018-08-12T07:52:32.674Z,24.48
2018-08-12T07:53:32.646Z,24.48
2018-08-12T07:54:32.671Z,24.53
2018-08-12T07:55:32.758Z,24.60
2018-08-12T07:56:32.652Z,24.76
2018-08-12T07:57:32.717Z,24.77
2018-08-12T07:58:32.671Z,24.85
2018-08-12T07:59:32.658Z,24.80
2018-08-12T08:00:32.670Z,24.85
2018-08-12T08:01:32.700Z,24.95
2018-08-12T08:02:32.730Z,25.14
2018-08-12T08:03:32.683Z,25.17
2018-08-12T08:04:33.444Z,25.29
2018-08-12T08:05:32.705Z,25.41
2018-08-12T08:06:32.692Z,25.41
2018-08-12T08:07:32.696Z,25.41
2018-08-12T08:08:32.700Z,25.36
2018-08-12T08:09:37.435Z,25.18
2018-08-12T08:10:32.717Z,24.91
2018-08-12T08:11:32.719Z,24.70
2018-08-12T08:12:32.735Z,24.66
2018-08-12T08:13:32.725Z,24.65
2018-08-12T08:14:32.722Z,24.65
2018-08-12T08:15:32.730Z,24.70
2018-08-12T08:16:32.736Z,24.76
2018-08-12T08:17:32.789Z,24.84
2018-08-12T08:18:32.767Z,25.07
2018-08-12T08:19:32.743Z,25.18
2018-08-12T08:20:32.746Z,25.41
2018-08-12T08:21:32.748Z,25.46
2018-08-12T08:22:32.754Z,25.43
2018-08-12T08:23:32.774Z,25.41
2018-08-12T08:24:32.776Z,25.48
2018-08-12T08:25:32.876Z,25.60
2018-08-12T08:26:32.793Z,25.68
2018-08-12T08:27:32.831Z,25.91
2018-08-12T08:28:32.822Z,25.78
2018-08-12T08:29:32.790Z,25.59
2018-08-12T08:30:32.799Z,25.53
2018-08-12T08:31:32.928Z,25.38
2018-08-12T08:32:32.867Z,25.40
2018-08-12T08:33:32.805Z,25.44
2018-08-12T08:34:32.808Z,25.54
2018-08-12T08:35:32.837Z,25.72
2018-08-12T08:36:32.832Z,25.70
2018-08-12T08:37:32.855Z,25.83
2018-08-12T08:38:32.823Z,25.85
2018-08-12T08:39:32.829Z,25.93
2018-08-12T08:40:32.835Z,26.23
2018-08-12T08:41:32.837Z,26.40
2018-08-12T08:42:32.855Z,26.47
2018-08-12T08:43:32.856Z,26.41
2018-08-12T08:44:32.854Z,26.28
2018-08-12T08:45:32.864Z,26.38
2018-08-12T08:46:32.867Z,26.25
2018-08-12T08:47:32.872Z,26.28
2018-08-12T08:48:32.879Z,26.40
2018-08-12T08:49:32.876Z,26.60
2018-08-12T08:50:32.965Z,26.68
2018-08-12T08:51:32.914Z,27.00
2018-08-12T08:52:33.456Z,26.95
2018-08-12T08:53:32.904Z,27.02
2018-08-12T08:54:32.905Z,27.15
2018-08-12T08:55:32.944Z,27.29
2018-08-12T08:56:32.919Z,27.47
2018-08-12T08:57:32.922Z,27.54
2018-08-12T08:58:32.930Z,27.55
2018-08-12T08:59:32.937Z,27.65
2018-08-12T09:00:32.941Z,27.63
2018-08-12T09:01:32.944Z,27.65
2018-08-12T09:02:32.965Z,27.70
2018-08-12T09:03:32.959Z,27.64
2018-08-12T09:04:32.965Z,27.51
2018-08-12T09:05:32.971Z,27.15
2018-08-12T09:06:32.977Z,27.12
2018-08-12T09:07:32.982Z,27.15
2018-08-12T09:08:33.188Z,27.35
2018-08-12T09:09:32.994Z,27.78
2018-08-12T09:10:33.002Z,27.86
2018-08-12T09:11:33.008Z,28.02
2018-08-12T09:12:33.012Z,28.23
2018-08-12T09:13:33.025Z,28.25
2018-08-12T09:14:33.028Z,28.33
2018-08-12T09:15:33.035Z,28.38
2018-08-12T09:16:33.041Z,28.56
2018-08-12T09:17:33.048Z,28.78
2018-08-12T09:18:33.054Z,28.96
2018-08-12T09:19:33.057Z,29.34
2018-08-12T09:20:33.061Z,29.31
2018-08-12T09:21:33.072Z,29.50
2018-08-12T09:22:33.082Z,29.47
2018-08-12T09:23:33.087Z,29.31
2018-08-12T09:24:33.093Z,29.42
2018-08-12T09:25:33.100Z,29.38
2018-08-12T09:26:33.104Z,29.56
2018-08-12T09:27:33.114Z,29.41
2018-08-12T09:28:33.123Z,29.38
2018-08-12T09:29:33.130Z,29.12
2018-08-12T09:30:33.134Z,28.76
2018-08-12T09:31:33.135Z,28.59
2018-08-12T09:32:33.149Z,28.67
2018-08-12T09:33:33.161Z,28.91
2018-08-12T09:34:33.162Z,28.88
2018-08-12T09:35:33.172Z,29.05
2018-08-12T09:36:33.174Z,28.91
2018-08-12T09:37:33.217Z,28.75
2018-08-12T09:38:33.192Z,28.74
2018-08-12T09:39:33.204Z,29.01
2018-08-12T09:40:33.209Z,29.24
2018-08-12T09:41:33.216Z,29.36
2018-08-12T09:42:33.241Z,29.35
2018-08-12T09:43:33.232Z,29.38
2018-08-12T09:44:33.242Z,29.47
2018-08-12T09:45:33.249Z,29.41
2018-08-12T09:46:33.251Z,29.31
2018-08-12T09:47:33.263Z,29.02
2018-08-12T09:48:33.268Z,28.75
2018-08-12T09:49:33.272Z,28.57
2018-08-12T09:50:33.289Z,28.91
2018-08-12T09:51:33.348Z,29.13
2018-08-12T09:52:33.299Z,28.98
2018-08-12T09:53:33.311Z,29.14
2018-08-12T09:54:33.318Z,29.39
2018-08-12T09:55:33.323Z,29.71
2018-08-12T09:56:33.339Z,29.71
2018-08-12T09:57:33.344Z,29.69
2018-08-12T09:58:33.415Z,29.32
2018-08-12T09:59:33.355Z,29.17
2018-08-12T10:00:33.359Z,29.04
2018-08-12T10:01:33.467Z,28.91
2018-08-12T10:02:33.375Z,28.97
2018-08-12T10:03:33.387Z,28.97
2018-08-12T10:04:33.396Z,29.08
2018-08-12T10:05:33.423Z,29.07
2018-08-12T10:06:33.410Z,29.32
2018-08-12T10:07:33.443Z,29.57
2018-08-12T10:08:33.416Z,29.34
2018-08-12T10:09:33.436Z,29.08
2018-08-12T10:10:33.441Z,29.01
2018-08-12T10:11:33.478Z,29.05
2018-08-12T10:12:33.454Z,29.17
2018-08-12T10:13:33.463Z,29.10
2018-08-12T10:14:33.467Z,28.93
2018-08-12T10:15:33.478Z,28.91
2018-08-12T10:16:33.477Z,28.88
2018-08-12T10:17:33.485Z,28.93
2018-08-12T10:18:33.505Z,29.17
2018-08-12T10:19:33.514Z,29.50
2018-08-12T10:20:33.507Z,29.54
2018-08-12T10:21:33.542Z,29.65
2018-08-12T10:30:16.426Z,31.27
2018-08-12T10:31:16.257Z,31.24
2018-08-12T10:33:09.915Z,31.07
2018-08-12T10:34:09.917Z,30.92
2018-08-12T10:35:09.947Z,30.47
2018-08-12T10:36:09.930Z,30.19
2018-08-12T10:37:09.947Z,30.10
2018-08-12T10:38:09.963Z,29.75
2018-08-12T10:39:09.961Z,29.71
2018-08-12T10:40:09.979Z,29.54
2018-08-12T10:41:09.977Z,29.60
2018-08-12T10:42:09.997Z,29.60
2018-08-12T10:43:10.003Z,29.54
2018-08-12T10:44:10.004Z,29.71
2018-08-12T10:45:10.012Z,29.94
2018-08-12T10:46:10.020Z,30.13
2018-08-12T10:47:10.029Z,30.31
2018-08-12T10:48:10.035Z,30.28
2018-08-12T10:49:10.046Z,30.15
2018-08-12T10:50:10.065Z,30.15
2018-08-12T10:51:10.061Z,30.08
2018-08-12T10:52:10.073Z,29.86
2018-08-12T10:53:10.073Z,29.79
2018-08-12T10:54:10.083Z,29.84
2018-08-12T10:55:10.096Z,30.35
2018-08-12T10:56:10.105Z,30.32
2018-08-12T10:57:10.111Z,30.66
2018-08-12T10:58:10.117Z,30.63
2018-08-12T10:59:10.124Z,30.78
2018-08-12T11:00:10.172Z,30.75
2018-08-12T11:01:10.160Z,30.90
2018-08-12T11:02:10.177Z,30.73
2018-08-12T11:03:10.175Z,30.75
2018-08-12T11:04:10.172Z,30.81
2018-08-12T11:05:10.178Z,30.68
2018-08-12T11:06:10.249Z,30.46
2018-08-12T11:07:10.232Z,30.31
2018-08-12T11:08:10.262Z,30.28
2018-08-12T11:09:10.229Z,30.25
2018-08-12T11:10:10.227Z,30.46
2018-08-12T11:11:10.240Z,30.66
2018-08-12T11:12:10.247Z,30.90
2018-08-12T11:13:10.257Z,30.90
2018-08-12T11:14:10.267Z,30.63
2018-08-12T11:15:10.271Z,30.30
2018-08-12T11:16:10.279Z,30.30
2018-08-12T11:17:10.318Z,30.28
2018-08-12T11:18:10.299Z,30.10
2018-08-12T11:19:10.308Z,30.13
2018-08-12T11:20:10.325Z,29.95
2018-08-12T11:21:10.349Z,30.13
2018-08-12T11:22:10.345Z,30.32
2018-08-12T11:23:10.348Z,30.44
2018-08-12T11:24:10.386Z,30.65
2018-08-12T11:25:10.360Z,30.81
2018-08-12T11:26:10.371Z,30.84
2018-08-12T11:27:10.459Z,31.05
2018-08-12T11:28:10.384Z,31.02
2018-08-12T11:29:10.396Z,31.06
2018-08-12T11:30:10.406Z,31.15
2018-08-12T11:31:10.412Z,31.22
2018-08-12T11:32:10.427Z,31.05
2018-08-12T11:33:10.432Z,31.18
2018-08-12T11:34:10.463Z,30.90
2018-08-12T11:35:10.460Z,30.66
2018-08-12T11:36:10.464Z,30.57
2018-08-12T11:37:10.464Z,30.55
2018-08-12T11:38:10.472Z,30.69
2018-08-12T11:39:10.480Z,30.70
2018-08-12T11:40:10.495Z,30.80
2018-08-12T11:41:10.544Z,30.75
2018-08-12T11:42:10.503Z,30.81
2018-08-12T11:43:10.511Z,30.66
2018-08-12T11:44:10.522Z,30.68
2018-08-12T11:45:10.543Z,30.97
2018-08-12T11:46:10.536Z,31.07
2018-08-12T11:47:10.585Z,31.09
2018-08-12T11:48:10.559Z,31.09
2018-08-12T11:49:10.615Z,31.31
2018-08-12T11:50:10.567Z,31.34
2018-08-12T11:51:10.578Z,31.18
2018-08-12T11:52:10.585Z,31.24
2018-08-12T11:53:10.586Z,31.12
2018-08-12T11:54:10.596Z,30.97
2018-08-12T11:55:10.604Z,31.00
2018-08-12T11:56:10.612Z,31.14
2018-08-12T11:57:10.620Z,31.21
2018-08-12T11:58:10.634Z,31.18
2018-08-12T11:59:10.636Z,31.24
2018-08-12T12:00:10.651Z,30.94
2018-08-12T12:01:10.652Z,31.12
2018-08-12T12:02:10.703Z,31.17
2018-08-12T12:03:10.668Z,31.25
2018-08-12T12:04:10.677Z,31.33
2018-08-12T12:05:10.685Z,31.12
2018-08-12T12:06:10.694Z,30.90
2018-08-12T12:07:10.706Z,30.80
2018-08-12T12:08:10.712Z,30.62
2018-08-12T12:09:10.718Z,30.47
2018-08-12T12:10:10.725Z,30.40
2018-08-12T12:11:10.729Z,30.34
2018-08-12T12:12:10.742Z,30.32
2018-08-12T12:13:10.790Z,30.15
2018-08-12T12:14:10.754Z,30.16
2018-08-12T12:15:10.764Z,30.30
2018-08-12T12:16:10.770Z,30.59
2018-08-12T12:17:10.779Z,30.51
2018-08-12T12:18:10.836Z,30.46
2018-08-12T12:19:10.803Z,30.70
2018-08-12T12:20:10.797Z,31.03
2018-08-12T12:21:10.803Z,30.92
2018-08-12T12:22:10.810Z,30.65
2018-08-12T12:23:10.816Z,30.80
2018-08-12T12:24:10.833Z,30.75
2018-08-12T12:25:10.838Z,30.88
2018-08-12T12:26:10.839Z,30.96
2018-08-12T12:27:10.852Z,31.12
2018-08-12T12:28:10.863Z,31.00
2018-08-12T12:29:10.869Z,30.99
2018-08-12T12:30:10.876Z,30.92
2018-08-12T12:31:10.879Z,31.02
2018-08-12T12:32:10.895Z,30.99
2018-08-12T12:33:10.892Z,31.29
2018-08-12T12:34:10.903Z,31.27
2018-08-12T12:35:10.909Z,31.25
2018-08-12T12:36:10.912Z,31.34
2018-08-12T12:37:10.924Z,31.24
2018-08-12T12:38:10.931Z,31.25
2018-08-12T12:39:10.939Z,30.96
2018-08-12T12:40:10.946Z,30.92
2018-08-12T12:41:10.957Z,30.87
2018-08-12T12:42:10.957Z,30.84
2018-08-12T12:43:10.965Z,30.63
2018-08-12T12:44:10.972Z,30.53
2018-08-12T12:45:10.981Z,30.44
2018-08-12T12:46:10.990Z,30.62
2018-08-12T12:47:10.992Z,30.61
2018-08-12T12:48:11.006Z,30.65
2018-08-12T12:49:11.008Z,30.69
2018-08-12T12:50:11.077Z,30.75
2018-08-12T12:51:11.024Z,30.90
2018-08-12T12:52:11.031Z,30.87
2018-08-12T12:53:11.037Z,30.90
2018-08-12T12:54:11.046Z,30.85
2018-08-12T12:55:11.057Z,30.87
2018-08-12T12:56:11.075Z,30.84
2018-08-12T12:57:11.091Z,30.90
2018-08-12T12:58:11.155Z,30.84
2018-08-12T12:59:11.084Z,30.84
2018-08-12T13:00:11.108Z,30.92
2018-08-12T13:01:11.111Z,30.99